sensor_id;sensor_type;location;lat;lon;timestamp;P1;durP1;ratioP1;P2;durP2;ratioP2
45356;SDS011;31092;51.924;21.448;2023-04-01T00:01:44;5.45;;;1.50;;
45356;SDS011;31092;51.924;21.448;2023-04-01T00:04:10;1.42;;;1.33;;
45356;SDS011;31092;51.924;21.448;2023-04-01T00:06:35;6.15;;;2.13;;
45356;SDS011;31092;51.924;21.448;2023-04-01T00:09:01;1.88;;;1.60;;
45356;SDS011;31092;51.924;21.448;2023-04-01T00:11:26;1.88;;;1.75;;
45356;SDS011;31092;51.924;21.448;2023-04-01T00:13:55;4.07;;;1.23;;
45356;SDS011;31092;51.924;21.448;2023-04-01T00:16:20;1.70;;;1.02;;
45356;SDS011;31092;51.924;21.448;2023-04-01T00:18:46;5.90;;;1.92;;
45356;SDS011;31092;51.924;21.448;2023-04-01T00:21:12;1.48;;;1.33;;
45356;SDS011;31092;51.924;21.448;2023-04-01T00:23:39;1.83;;;1.65;;
45356;SDS011;31092;51.924;21.448;2023-04-01T00:26:04;3.35;;;1.83;;
45356;SDS011;31092;51.924;21.448;2023-04-01T00:28:30;2.33;;;1.58;;
45356;SDS011;31092;51.924;21.448;2023-04-01T00:30:56;2.72;;;1.48;;
45356;SDS011;31092;51.924;21.448;2023-04-01T00:33:22;1.92;;;1.65;;
45356;SDS011;31092;51.924;21.448;2023-04-01T00:35:47;1.75;;;1.25;;
45356;SDS011;31092;51.924;21.448;2023-04-01T00:38:13;3.83;;;1.77;;
45356;SDS011;31092;51.924;21.448;2023-04-01T00:40:43;3.47;;;1.63;;
45356;SDS011;31092;51.924;21.448;2023-04-01T00:43:14;3.53;;;2.33;;
45356;SDS011;31092;51.924;21.448;2023-04-01T00:45:45;3.25;;;1.67;;
45356;SDS011;31092;51.924;21.448;2023-04-01T00:48:15;4.97;;;1.42;;
45356;SDS011;31092;51.924;21.448;2023-04-01T00:50:44;7.10;;;0.95;;
45356;SDS011;31092;51.924;21.448;2023-04-01T00:53:14;1.80;;;1.45;;
45356;SDS011;31092;51.924;21.448;2023-04-01T00:55:42;7.68;;;1.27;;
45356;SDS011;31092;51.924;21.448;2023-04-01T00:58:15;3.00;;;1.33;;
45356;SDS011;31092;51.924;21.448;2023-04-01T01:00:46;4.00;;;1.77;;
45356;SDS011;31092;51.924;21.448;2023-04-01T01:03:14;4.43;;;2.13;;
45356;SDS011;31092;51.924;21.448;2023-04-01T01:08:15;2.42;;;1.48;;
45356;SDS011;31092;51.924;21.448;2023-04-01T01:10:55;2.80;;;1.60;;
45356;SDS011;31092;51.924;21.448;2023-04-01T01:13:37;2.53;;;1.77;;
45356;SDS011;31092;51.924;21.448;2023-04-01T01:19:03;2.30;;;1.77;;
45356;SDS011;31092;51.924;21.448;2023-04-01T01:29:27;2.33;;;1.63;;
45356;SDS011;31092;51.924;21.448;2023-04-01T01:37:36;1.92;;;1.50;;
45356;SDS011;31092;51.924;21.448;2023-04-01T01:40:05;1.67;;;1.58;;
45356;SDS011;31092;51.924;21.448;2023-04-01T01:42:33;2.25;;;1.35;;
45356;SDS011;31092;51.924;21.448;2023-04-01T01:45:02;3.03;;;1.52;;
45356;SDS011;31092;51.924;21.448;2023-04-01T01:47:31;2.30;;;1.25;;
45356;SDS011;31092;51.924;21.448;2023-04-01T01:49:58;2.38;;;1.48;;
45356;SDS011;31092;51.924;21.448;2023-04-01T01:52:26;2.35;;;2.22;;
45356;SDS011;31092;51.924;21.448;2023-04-01T01:54:56;6.03;;;1.85;;
45356;SDS011;31092;51.924;21.448;2023-04-01T01:57:24;1.75;;;1.65;;
45356;SDS011;31092;51.924;21.448;2023-04-01T01:59:54;3.40;;;1.85;;
45356;SDS011;31092;51.924;21.448;2023-04-01T02:02:23;1.73;;;1.63;;
45356;SDS011;31092;51.924;21.448;2023-04-01T02:04:50;1.88;;;1.73;;
45356;SDS011;31092;51.924;21.448;2023-04-01T02:07:21;2.88;;;1.55;;
45356;SDS011;31092;51.924;21.448;2023-04-01T02:09:52;3.65;;;1.17;;
45356;SDS011;31092;51.924;21.448;2023-04-01T02:12:18;4.30;;;1.35;;
45356;SDS011;31092;51.924;21.448;2023-04-01T02:14:52;1.73;;;1.60;;
45356;SDS011;31092;51.924;21.448;2023-04-01T02:17:21;1.65;;;1.55;;
45356;SDS011;31092;51.924;21.448;2023-04-01T02:19:53;1.00;;;0.95;;
45356;SDS011;31092;51.924;21.448;2023-04-01T02:22:25;2.78;;;1.67;;
45356;SDS011;31092;51.924;21.448;2023-04-01T02:24:54;1.90;;;1.70;;
45356;SDS011;31092;51.924;21.448;2023-04-01T02:27:23;1.60;;;0.63;;
45356;SDS011;31092;51.924;21.448;2023-04-01T02:29:49;1.70;;;1.23;;
45356;SDS011;31092;51.924;21.448;2023-04-01T02:32:16;1.60;;;1.30;;
45356;SDS011;31092;51.924;21.448;2023-04-01T02:34:44;2.05;;;1.08;;
45356;SDS011;31092;51.924;21.448;2023-04-01T02:37:10;1.33;;;1.23;;
45356;SDS011;31092;51.924;21.448;2023-04-01T02:39:37;1.55;;;1.45;;
45356;SDS011;31092;51.924;21.448;2023-04-01T02:42:02;1.67;;;1.35;;
45356;SDS011;31092;51.924;21.448;2023-04-01T02:44:28;2.60;;;0.98;;
45356;SDS011;31092;51.924;21.448;2023-04-01T02:46:53;2.97;;;1.75;;
45356;SDS011;31092;51.924;21.448;2023-04-01T02:49:19;1.08;;;0.98;;
45356;SDS011;31092;51.924;21.448;2023-04-01T02:51:45;1.27;;;1.05;;
45356;SDS011;31092;51.924;21.448;2023-04-01T02:54:10;2.22;;;1.25;;
45356;SDS011;31092;51.924;21.448;2023-04-01T02:56:35;2.50;;;1.50;;
45356;SDS011;31092;51.924;21.448;2023-04-01T02:59:01;1.13;;;1.02;;
45356;SDS011;31092;51.924;21.448;2023-04-01T03:01:26;4.05;;;2.42;;
45356;SDS011;31092;51.924;21.448;2023-04-01T03:03:52;3.58;;;2.25;;
45356;SDS011;31092;51.924;21.448;2023-04-01T03:06:17;3.00;;;1.67;;
45356;SDS011;31092;51.924;21.448;2023-04-01T03:08:43;10.65;;;2.35;;
45356;SDS011;31092;51.924;21.448;2023-04-01T03:11:09;2.17;;;1.55;;
45356;SDS011;31092;51.924;21.448;2023-04-01T03:13:35;2.63;;;2.03;;
45356;SDS011;31092;51.924;21.448;2023-04-01T03:16:01;5.15;;;2.85;;
45356;SDS011;31092;51.924;21.448;2023-04-01T03:18:26;3.67;;;2.97;;
45356;SDS011;31092;51.924;21.448;2023-04-01T03:20:52;4.03;;;2.60;;
45356;SDS011;31092;51.924;21.448;2023-04-01T03:23:17;4.85;;;3.35;;
45356;SDS011;31092;51.924;21.448;2023-04-01T03:25:44;3.70;;;3.40;;
45356;SDS011;31092;51.924;21.448;2023-04-01T03:28:10;7.63;;;3.08;;
45356;SDS011;31092;51.924;21.448;2023-04-01T03:30:37;5.47;;;2.53;;
45356;SDS011;31092;51.924;21.448;2023-04-01T03:33:02;2.38;;;1.83;;
45356;SDS011;31092;51.924;21.448;2023-04-01T03:35:28;3.58;;;2.47;;
45356;SDS011;31092;51.924;21.448;2023-04-01T03:37:54;2.70;;;1.63;;
45356;SDS011;31092;51.924;21.448;2023-04-01T03:40:20;3.92;;;2.20;;
45356;SDS011;31092;51.924;21.448;2023-04-01T03:42:46;7.93;;;2.90;;
45356;SDS011;31092;51.924;21.448;2023-04-01T03:45:11;2.78;;;1.70;;
45356;SDS011;31092;51.924;21.448;2023-04-01T03:47:37;4.20;;;2.55;;
45356;SDS011;31092;51.924;21.448;2023-04-01T03:50:03;2.03;;;1.90;;
45356;SDS011;31092;51.924;21.448;2023-04-01T03:52:30;1.80;;;1.60;;
45356;SDS011;31092;51.924;21.448;2023-04-01T03:54:56;5.15;;;2.88;;
45356;SDS011;31092;51.924;21.448;2023-04-01T03:57:21;1.65;;;1.50;;
45356;SDS011;31092;51.924;21.448;2023-04-01T03:59:47;4.07;;;2.05;;
45356;SDS011;31092;51.924;21.448;2023-04-01T04:02:12;3.67;;;1.65;;
45356;SDS011;31092;51.924;21.448;2023-04-01T04:04:38;1.92;;;1.83;;
45356;SDS011;31092;51.924;21.448;2023-04-01T04:07:03;2.53;;;1.60;;
45356;SDS011;31092;51.924;21.448;2023-04-01T04:09:30;3.42;;;2.47;;
45356;SDS011;31092;51.924;21.448;2023-04-01T04:11:56;4.40;;;1.85;;
45356;SDS011;31092;51.924;21.448;2023-04-01T04:14:22;2.05;;;1.83;;
45356;SDS011;31092;51.924;21.448;2023-04-01T04:16:48;4.20;;;2.15;;
45356;SDS011;31092;51.924;21.448;2023-04-01T04:19:13;2.47;;;2.17;;
45356;SDS011;31092;51.924;21.448;2023-04-01T04:21:40;4.18;;;2.13;;
45356;SDS011;31092;51.924;21.448;2023-04-01T04:24:06;3.03;;;2.05;;
45356;SDS011;31092;51.924;21.448;2023-04-01T04:26:32;11.27;;;2.33;;
45356;SDS011;31092;51.924;21.448;2023-04-01T04:28:57;2.75;;;2.45;;
45356;SDS011;31092;51.924;21.448;2023-04-01T04:31:23;4.43;;;2.33;;
45356;SDS011;31092;51.924;21.448;2023-04-01T04:33:50;3.70;;;2.83;;
45356;SDS011;31092;51.924;21.448;2023-04-01T04:36:16;3.28;;;1.88;;
45356;SDS011;31092;51.924;21.448;2023-04-01T04:38:42;7.93;;;1.80;;
45356;SDS011;31092;51.924;21.448;2023-04-01T04:41:08;3.70;;;2.55;;
45356;SDS011;31092;51.924;21.448;2023-04-01T04:43:35;7.20;;;3.42;;
45356;SDS011;31092;51.924;21.448;2023-04-01T04:46:03;2.15;;;1.95;;
45356;SDS011;31092;51.924;21.448;2023-04-01T04:48:32;3.72;;;2.13;;
45356;SDS011;31092;51.924;21.448;2023-04-01T04:50:58;4.20;;;2.85;;
45356;SDS011;31092;51.924;21.448;2023-04-01T04:53:23;5.55;;;3.65;;
45356;SDS011;31092;51.924;21.448;2023-04-01T04:55:50;6.35;;;3.13;;
45356;SDS011;31092;51.924;21.448;2023-04-01T04:58:16;5.93;;;3.35;;
45356;SDS011;31092;51.924;21.448;2023-04-01T05:00:42;2.70;;;2.28;;
45356;SDS011;31092;51.924;21.448;2023-04-01T05:03:08;4.10;;;2.33;;
45356;SDS011;31092;51.924;21.448;2023-04-01T05:05:35;4.72;;;3.63;;
45356;SDS011;31092;51.924;21.448;2023-04-01T05:08:00;3.67;;;2.67;;
45356;SDS011;31092;51.924;21.448;2023-04-01T05:10:26;7.45;;;2.90;;
45356;SDS011;31092;51.924;21.448;2023-04-01T05:12:51;4.18;;;2.75;;
45356;SDS011;31092;51.924;21.448;2023-04-01T05:15:17;2.78;;;2.53;;
45356;SDS011;31092;51.924;21.448;2023-04-01T05:17:42;2.17;;;1.95;;
45356;SDS011;31092;51.924;21.448;2023-04-01T05:20:08;13.35;;;2.75;;
45356;SDS011;31092;51.924;21.448;2023-04-01T05:22:34;6.50;;;3.97;;
45356;SDS011;31092;51.924;21.448;2023-04-01T05:25:00;2.55;;;2.13;;
45356;SDS011;31092;51.924;21.448;2023-04-01T05:27:25;3.83;;;3.20;;
45356;SDS011;31092;51.924;21.448;2023-04-01T05:29:51;4.55;;;2.25;;
45356;SDS011;31092;51.924;21.448;2023-04-01T05:32:16;6.45;;;2.60;;
45356;SDS011;31092;51.924;21.448;2023-04-01T05:34:42;4.28;;;2.40;;
45356;SDS011;31092;51.924;21.448;2023-04-01T05:37:08;8.05;;;3.15;;
45356;SDS011;31092;51.924;21.448;2023-04-01T05:39:37;2.75;;;2.38;;
45356;SDS011;31092;51.924;21.448;2023-04-01T05:42:03;4.40;;;2.10;;
45356;SDS011;31092;51.924;21.448;2023-04-01T05:44:30;3.28;;;2.80;;
45356;SDS011;31092;51.924;21.448;2023-04-01T05:46:55;7.50;;;3.60;;
45356;SDS011;31092;51.924;21.448;2023-04-01T05:49:21;9.82;;;3.80;;
45356;SDS011;31092;51.924;21.448;2023-04-01T05:51:46;10.38;;;5.18;;
45356;SDS011;31092;51.924;21.448;2023-04-01T05:54:12;5.53;;;3.13;;
45356;SDS011;31092;51.924;21.448;2023-04-01T05:56:37;7.78;;;3.55;;
45356;SDS011;31092;51.924;21.448;2023-04-01T05:59:03;6.20;;;3.58;;
45356;SDS011;31092;51.924;21.448;2023-04-01T06:01:28;5.55;;;3.75;;
45356;SDS011;31092;51.924;21.448;2023-04-01T06:03:54;6.38;;;3.22;;
45356;SDS011;31092;51.924;21.448;2023-04-01T06:06:23;8.77;;;4.75;;
45356;SDS011;31092;51.924;21.448;2023-04-01T06:08:51;10.93;;;6.05;;
45356;SDS011;31092;51.924;21.448;2023-04-01T06:11:33;8.00;;;3.88;;
45356;SDS011;31092;51.924;21.448;2023-04-01T06:25:12;5.78;;;4.00;;
45356;SDS011;31092;51.924;21.448;2023-04-01T06:30:42;3.40;;;2.60;;
45356;SDS011;31092;51.924;21.448;2023-04-01T06:33:35;6.63;;;3.60;;
45356;SDS011;31092;51.924;21.448;2023-04-01T06:38:56;6.25;;;3.95;;
45356;SDS011;31092;51.924;21.448;2023-04-01T06:42:05;6.72;;;4.22;;
45356;SDS011;31092;51.924;21.448;2023-04-01T06:52:44;7.50;;;4.43;;
45356;SDS011;31092;51.924;21.448;2023-04-01T06:57:54;5.80;;;3.78;;
45356;SDS011;31092;51.924;21.448;2023-04-01T07:00:30;8.95;;;4.25;;
45356;SDS011;31092;51.924;21.448;2023-04-01T07:05:42;5.72;;;4.05;;
45356;SDS011;31092;51.924;21.448;2023-04-01T07:08:10;4.88;;;4.10;;
45356;SDS011;31092;51.924;21.448;2023-04-01T07:13:25;5.32;;;4.57;;
45356;SDS011;31092;51.924;21.448;2023-04-01T07:15:58;9.55;;;6.05;;
45356;SDS011;31092;51.924;21.448;2023-04-01T07:18:34;4.85;;;3.67;;
45356;SDS011;31092;51.924;21.448;2023-04-01T07:21:08;8.32;;;3.83;;
45356;SDS011;31092;51.924;21.448;2023-04-01T07:23:42;8.43;;;4.35;;
45356;SDS011;31092;51.924;21.448;2023-04-01T07:26:20;5.75;;;3.33;;
45356;SDS011;31092;51.924;21.448;2023-04-01T07:28:48;6.63;;;3.90;;
45356;SDS011;31092;51.924;21.448;2023-04-01T07:31:19;5.50;;;4.25;;
45356;SDS011;31092;51.924;21.448;2023-04-01T07:36:48;8.15;;;3.72;;
45356;SDS011;31092;51.924;21.448;2023-04-01T07:42:19;6.93;;;3.47;;
45356;SDS011;31092;51.924;21.448;2023-04-01T07:45:01;5.03;;;3.30;;
45356;SDS011;31092;51.924;21.448;2023-04-01T07:50:27;5.07;;;3.47;;
45356;SDS011;31092;51.924;21.448;2023-04-01T08:04:08;3.70;;;3.40;;
45356;SDS011;31092;51.924;21.448;2023-04-01T08:12:38;5.18;;;3.20;;
45356;SDS011;31092;51.924;21.448;2023-04-01T08:15:26;3.70;;;3.25;;
45356;SDS011;31092;51.924;21.448;2023-04-01T08:22:57;2.97;;;2.53;;
45356;SDS011;31092;51.924;21.448;2023-04-01T08:25:27;6.40;;;2.38;;
45356;SDS011;31092;51.924;21.448;2023-04-01T08:30:44;3.42;;;2.35;;
45356;SDS011;31092;51.924;21.448;2023-04-01T08:33:25;7.43;;;3.70;;
45356;SDS011;31092;51.924;21.448;2023-04-01T08:36:13;3.55;;;2.55;;
45356;SDS011;31092;51.924;21.448;2023-04-01T08:38:43;4.50;;;3.80;;
45356;SDS011;31092;51.924;21.448;2023-04-01T08:57:56;2.22;;;1.85;;
45356;SDS011;31092;51.924;21.448;2023-04-01T09:03:42;6.05;;;2.50;;
45356;SDS011;31092;51.924;21.448;2023-04-01T09:31:39;6.72;;;2.08;;
45356;SDS011;31092;51.924;21.448;2023-04-01T09:37:21;4.10;;;3.08;;
45356;SDS011;31092;51.924;21.448;2023-04-01T09:42:43;4.72;;;2.97;;
45356;SDS011;31092;51.924;21.448;2023-04-01T10:13:16;5.65;;;3.75;;
45356;SDS011;31092;51.924;21.448;2023-04-01T10:28:24;4.38;;;3.25;;
45356;SDS011;31092;51.924;21.448;2023-04-01T10:34:18;4.10;;;3.35;;
45356;SDS011;31092;51.924;21.448;2023-04-01T11:30:16;4.30;;;1.85;;
45356;SDS011;31092;51.924;21.448;2023-04-01T11:41:30;1.52;;;1.38;;
45356;SDS011;31092;51.924;21.448;2023-04-01T12:24:10;2.45;;;1.45;;
45356;SDS011;31092;51.924;21.448;2023-04-01T12:45:33;3.90;;;2.20;;
45356;SDS011;31092;51.924;21.448;2023-04-01T12:48:11;2.65;;;1.83;;
45356;SDS011;31092;51.924;21.448;2023-04-01T12:56:09;4.55;;;2.63;;
45356;SDS011;31092;51.924;21.448;2023-04-01T13:01:53;3.15;;;2.08;;
45356;SDS011;31092;51.924;21.448;2023-04-01T13:07:14;3.83;;;2.22;;
45356;SDS011;31092;51.924;21.448;2023-04-01T13:09:52;1.98;;;1.50;;
45356;SDS011;31092;51.924;21.448;2023-04-01T13:32:34;1.48;;;0.95;;
45356;SDS011;31092;51.924;21.448;2023-04-01T13:40:36;2.45;;;1.40;;
45356;SDS011;31092;51.924;21.448;2023-04-01T13:43:39;1.25;;;1.15;;
45356;SDS011;31092;51.924;21.448;2023-04-01T13:52:03;1.52;;;1.42;;
45356;SDS011;31092;51.924;21.448;2023-04-01T13:54:53;0.82;;;0.75;;
45356;SDS011;31092;51.924;21.448;2023-04-01T14:00:19;1.67;;;1.00;;
45356;SDS011;31092;51.924;21.448;2023-04-01T14:02:57;3.05;;;1.35;;
45356;SDS011;31092;51.924;21.448;2023-04-01T14:05:43;0.98;;;0.77;;
45356;SDS011;31092;51.924;21.448;2023-04-01T14:11:13;2.38;;;0.85;;
45356;SDS011;31092;51.924;21.448;2023-04-01T14:16:55;1.33;;;1.05;;
45356;SDS011;31092;51.924;21.448;2023-04-01T14:19:37;3.17;;;2.13;;
45356;SDS011;31092;51.924;21.448;2023-04-01T14:44:18;3.25;;;1.85;;
45356;SDS011;31092;51.924;21.448;2023-04-01T14:50:08;1.02;;;0.95;;
45356;SDS011;31092;51.924;21.448;2023-04-01T14:52:39;3.75;;;1.73;;
45356;SDS011;31092;51.924;21.448;2023-04-01T14:55:17;2.03;;;1.30;;
45356;SDS011;31092;51.924;21.448;2023-04-01T14:57:44;3.25;;;1.38;;
45356;SDS011;31092;51.924;21.448;2023-04-01T15:03:26;2.15;;;1.17;;
45356;SDS011;31092;51.924;21.448;2023-04-01T15:06:00;1.92;;;1.27;;
45356;SDS011;31092;51.924;21.448;2023-04-01T15:17:28;2.33;;;1.83;;
45356;SDS011;31092;51.924;21.448;2023-04-01T15:20:19;2.17;;;0.98;;
45356;SDS011;31092;51.924;21.448;2023-04-01T15:36:02;1.15;;;0.95;;
45356;SDS011;31092;51.924;21.448;2023-04-01T15:44:02;1.20;;;1.10;;
45356;SDS011;31092;51.924;21.448;2023-04-01T15:46:46;2.85;;;1.60;;
45356;SDS011;31092;51.924;21.448;2023-04-01T15:49:16;1.58;;;1.48;;
45356;SDS011;31092;51.924;21.448;2023-04-01T15:54:27;3.30;;;1.83;;
45356;SDS011;31092;51.924;21.448;2023-04-01T15:57:15;2.90;;;1.10;;
45356;SDS011;31092;51.924;21.448;2023-04-01T15:59:57;2.45;;;1.45;;
45356;SDS011;31092;51.924;21.448;2023-04-01T16:19:03;0.75;;;0.68;;
45356;SDS011;31092;51.924;21.448;2023-04-01T16:21:50;1.45;;;0.80;;
45356;SDS011;31092;51.924;21.448;2023-04-01T16:24:35;0.73;;;0.63;;
45356;SDS011;31092;51.924;21.448;2023-04-01T16:33:03;1.67;;;1.40;;
45356;SDS011;31092;51.924;21.448;2023-04-01T16:43:55;7.60;;;1.52;;
45356;SDS011;31092;51.924;21.448;2023-04-01T17:00:16;2.88;;;1.05;;
45356;SDS011;31092;51.924;21.448;2023-04-01T17:06:02;2.33;;;1.23;;
45356;SDS011;31092;51.924;21.448;2023-04-01T17:08:55;1.27;;;1.17;;
45356;SDS011;31092;51.924;21.448;2023-04-01T17:11:27;1.55;;;0.88;;
45356;SDS011;31092;51.924;21.448;2023-04-01T17:14:46;1.13;;;0.60;;
45356;SDS011;31092;51.924;21.448;2023-04-01T17:22:40;1.38;;;1.27;;
45356;SDS011;31092;51.924;21.448;2023-04-01T17:25:35;1.15;;;1.05;;
45356;SDS011;31092;51.924;21.448;2023-04-01T17:28:15;1.95;;;1.00;;
45356;SDS011;31092;51.924;21.448;2023-04-01T17:39:01;0.50;;;0.50;;
45356;SDS011;31092;51.924;21.448;2023-04-01T17:44:34;1.52;;;1.13;;
45356;SDS011;31092;51.924;21.448;2023-04-01T17:50:36;0.55;;;0.55;;
45356;SDS011;31092;51.924;21.448;2023-04-01T17:59:32;0.75;;;0.75;;
45356;SDS011;31092;51.924;21.448;2023-04-01T18:08:15;1.05;;;1.02;;
45356;SDS011;31092;51.924;21.448;2023-04-01T18:17:17;1.23;;;0.93;;
45356;SDS011;31092;51.924;21.448;2023-04-01T18:25:10;1.50;;;1.13;;
45356;SDS011;31092;51.924;21.448;2023-04-01T18:30:49;1.55;;;1.15;;
45356;SDS011;31092;51.924;21.448;2023-04-01T18:33:21;1.67;;;1.25;;
45356;SDS011;31092;51.924;21.448;2023-04-01T18:38:39;1.05;;;0.65;;
45356;SDS011;31092;51.924;21.448;2023-04-01T18:41:13;0.85;;;0.85;;
45356;SDS011;31092;51.924;21.448;2023-04-01T18:44:03;0.90;;;0.90;;
45356;SDS011;31092;51.924;21.448;2023-04-01T18:46:33;0.95;;;0.90;;
45356;SDS011;31092;51.924;21.448;2023-04-01T18:51:54;2.15;;;1.42;;
45356;SDS011;31092;51.924;21.448;2023-04-01T18:54:30;2.95;;;0.98;;
45356;SDS011;31092;51.924;21.448;2023-04-01T18:57:15;5.32;;;1.30;;
45356;SDS011;31092;51.924;21.448;2023-04-01T18:59:49;1.33;;;1.23;;
45356;SDS011;31092;51.924;21.448;2023-04-01T19:05:12;2.25;;;0.88;;
45356;SDS011;31092;51.924;21.448;2023-04-01T19:13:01;0.95;;;0.73;;
45356;SDS011;31092;51.924;21.448;2023-04-01T19:16:12;0.40;;;0.40;;
45356;SDS011;31092;51.924;21.448;2023-04-01T19:27:25;0.95;;;0.60;;
45356;SDS011;31092;51.924;21.448;2023-04-01T19:30:11;0.47;;;0.40;;
45356;SDS011;31092;51.924;21.448;2023-04-01T19:35:39;0.90;;;0.90;;
45356;SDS011;31092;51.924;21.448;2023-04-01T19:51:40;0.55;;;0.55;;
45356;SDS011;31092;51.924;21.448;2023-04-01T20:05:47;1.08;;;1.05;;
45356;SDS011;31092;51.924;21.448;2023-04-01T20:08:22;1.27;;;0.82;;
45356;SDS011;31092;51.924;21.448;2023-04-01T20:17:01;2.15;;;1.42;;
45356;SDS011;31092;51.924;21.448;2023-04-01T20:19:40;3.22;;;1.13;;
45356;SDS011;31092;51.924;21.448;2023-04-01T20:22:20;0.98;;;0.95;;
45356;SDS011;31092;51.924;21.448;2023-04-01T20:24:51;2.30;;;1.08;;
45356;SDS011;31092;51.924;21.448;2023-04-01T20:27:26;1.48;;;1.38;;
45356;SDS011;31092;51.924;21.448;2023-04-01T20:30:16;0.30;;;0.30;;
45356;SDS011;31092;51.924;21.448;2023-04-01T20:43:59;3.75;;;1.65;;
45356;SDS011;31092;51.924;21.448;2023-04-01T21:00:02;1.17;;;1.08;;
45356;SDS011;31092;51.924;21.448;2023-04-01T21:02:53;1.10;;;1.00;;
45356;SDS011;31092;51.924;21.448;2023-04-01T21:22:31;2.20;;;1.58;;
45356;SDS011;31092;51.924;21.448;2023-04-01T21:41:02;2.70;;;1.77;;
45356;SDS011;31092;51.924;21.448;2023-04-01T22:04:24;0.68;;;0.60;;
45356;SDS011;31092;51.924;21.448;2023-04-01T22:08:59;2.08;;;0.82;;
45356;SDS011;31092;51.924;21.448;2023-04-01T22:17:18;1.10;;;1.00;;
45356;SDS011;31092;51.924;21.448;2023-04-01T22:22:56;1.98;;;1.55;;
45356;SDS011;31092;51.924;21.448;2023-04-01T22:25:34;4.15;;;0.88;;
45356;SDS011;31092;51.924;21.448;2023-04-01T22:28:09;1.58;;;1.20;;
45356;SDS011;31092;51.924;21.448;2023-04-01T22:30:46;2.75;;;1.27;;
45356;SDS011;31092;51.924;21.448;2023-04-01T22:33:26;4.43;;;1.80;;
45356;SDS011;31092;51.924;21.448;2023-04-01T22:47:17;2.28;;;1.45;;
45356;SDS011;31092;51.924;21.448;2023-04-01T22:50:22;4.15;;;2.00;;
45356;SDS011;31092;51.924;21.448;2023-04-01T22:55:46;1.60;;;0.90;;
45356;SDS011;31092;51.924;21.448;2023-04-01T22:58:17;1.27;;;1.05;;
45356;SDS011;31092;51.924;21.448;2023-04-01T23:01:05;2.22;;;0.80;;
45356;SDS011;31092;51.924;21.448;2023-04-01T23:03:41;0.65;;;0.65;;
45356;SDS011;31092;51.924;21.448;2023-04-01T23:06:14;1.58;;;1.10;;
45356;SDS011;31092;51.924;21.448;2023-04-01T23:14:13;1.30;;;1.15;;
45356;SDS011;31092;51.924;21.448;2023-04-01T23:16:47;2.58;;;1.13;;
45356;SDS011;31092;51.924;21.448;2023-04-01T23:22:10;4.05;;;0.85;;
45356;SDS011;31092;51.924;21.448;2023-04-01T23:27:35;0.63;;;0.60;;
45356;SDS011;31092;51.924;21.448;2023-04-01T23:36:16;1.17;;;1.10;;
45356;SDS011;31092;51.924;21.448;2023-04-01T23:38:40;1.05;;;0.60;;
45356;SDS011;31092;51.924;21.448;2023-04-01T23:41:17;1.95;;;1.42;;
45356;SDS011;31092;51.924;21.448;2023-04-01T23:43:53;0.85;;;0.85;;
45356;SDS011;31092;51.924;21.448;2023-04-01T23:46:30;2.45;;;1.17;;
45356;SDS011;31092;51.924;21.448;2023-04-01T23:48:58;0.90;;;0.90;;
45356;SDS011;31092;51.924;21.448;2023-04-01T23:51:26;1.05;;;0.93;;
45356;SDS011;31092;51.924;21.448;2023-04-01T23:54:04;0.65;;;0.65;;
45356;SDS011;31092;51.924;21.448;2023-04-01T23:56:49;0.98;;;0.98;;
45356;SDS011;31092;51.924;21.448;2023-04-01T23:59:18;2.47;;;1.92;;
